createdAt,value
2023-04-26T00:00:06.457Z,79.31
2023-04-26T00:02:36.048Z,79.47
2023-04-26T00:05:05.248Z,79.75
2023-04-26T00:07:35.484Z,80.12
2023-04-26T00:10:03.552Z,80.36
2023-04-26T00:12:31.649Z,80.65
2023-04-26T00:14:59.734Z,80.91
2023-04-26T00:17:27.780Z,81.24
2023-04-26T00:19:57.627Z,81.41
2023-04-26T00:22:26.119Z,81.40
2023-04-26T00:24:55.571Z,81.45
2023-04-26T00:27:23.630Z,81.60
2023-04-26T00:29:51.696Z,81.58
2023-04-26T00:32:19.770Z,81.66
2023-04-26T00:34:47.852Z,81.70
2023-04-26T00:37:16.638Z,81.68
2023-04-26T00:39:44.733Z,81.51
2023-04-26T00:42:14.175Z,81.43
2023-04-26T00:44:42.230Z,81.55
2023-04-26T00:47:10.446Z,81.06
2023-04-26T00:49:38.561Z,80.67
2023-04-26T00:52:07.029Z,80.53
2023-04-26T00:54:35.143Z,80.26
2023-04-26T00:57:03.595Z,79.94
2023-04-26T00:59:34.641Z,79.91
2023-04-26T01:02:03.873Z,79.79
2023-04-26T01:04:32.160Z,79.83
2023-04-26T01:07:01.501Z,79.92
2023-04-26T01:09:29.653Z,80.19
2023-04-26T01:11:58.575Z,80.21
2023-04-26T01:14:27.045Z,80.32
2023-04-26T01:16:57.780Z,80.29
2023-04-26T01:19:25.886Z,80.30
2023-04-26T01:21:53.982Z,80.44
2023-04-26T01:24:23.413Z,80.46
2023-04-26T01:26:51.611Z,80.19
2023-04-26T01:29:21.197Z,80.14
2023-04-26T01:31:49.926Z,79.82
2023-04-26T01:34:18.280Z,79.72
2023-04-26T01:36:46.347Z,79.48
2023-04-26T01:39:14.415Z,79.07
2023-04-26T01:41:43.881Z,79.15
2023-04-26T01:44:11.951Z,78.89
2023-04-26T01:46:40.160Z,79.15
2023-04-26T01:49:08.344Z,79.11
2023-04-26T01:51:36.451Z,79.38
2023-04-26T01:54:04.633Z,79.34
2023-04-26T01:56:32.683Z,79.39
2023-04-26T01:59:02.097Z,79.51
2023-04-26T02:01:30.212Z,79.50
2023-04-26T02:03:58.276Z,79.49
2023-04-26T02:06:26.477Z,79.76
2023-04-26T02:08:55.179Z,79.54
2023-04-26T02:11:23.482Z,79.48
2023-04-26T02:13:51.636Z,79.46
2023-04-26T02:16:21.390Z,79.72
2023-04-26T02:18:50.795Z,80.02
2023-04-26T02:21:19.308Z,80.25
2023-04-26T02:23:47.355Z,80.45
2023-04-26T02:26:15.700Z,80.55
2023-04-26T02:28:43.756Z,80.56
2023-04-26T02:31:12.253Z,80.52
2023-04-26T02:33:41.761Z,80.72
2023-04-26T02:36:10.121Z,80.65
2023-04-26T02:38:38.263Z,80.90
2023-04-26T02:41:06.592Z,80.92
2023-04-26T02:43:34.768Z,80.91
2023-04-26T02:46:02.954Z,80.70
2023-04-26T02:48:31.023Z,80.58
2023-04-26T02:51:00.493Z,80.43
2023-04-26T02:53:28.566Z,80.29
2023-04-26T02:55:56.807Z,80.17
2023-04-26T02:58:24.889Z,80.16
2023-04-26T03:00:54.716Z,80.40
2023-04-26T03:03:23.219Z,80.57
2023-04-26T03:05:51.634Z,80.50
2023-04-26T03:08:21.142Z,80.47
2023-04-26T03:10:49.237Z,80.13
2023-04-26T03:13:17.361Z,80.03
2023-04-26T03:15:47.050Z,79.83
2023-04-26T03:18:15.123Z,79.98
2023-04-26T03:20:43.584Z,80.03
2023-04-26T03:23:11.611Z,79.97
2023-04-26T03:25:41.018Z,80.05
2023-04-26T03:28:09.108Z,80.14
2023-04-26T03:30:37.262Z,80.19
2023-04-26T03:33:05.369Z,80.29
2023-04-26T03:35:33.483Z,80.43
2023-04-26T03:38:01.542Z,80.50
2023-04-26T03:40:29.752Z,80.86
2023-04-26T03:42:59.196Z,80.91
2023-04-26T03:45:27.797Z,81.19
2023-04-26T03:47:59.040Z,81.46
2023-04-26T03:50:27.280Z,81.69
2023-04-26T03:52:55.343Z,81.83
2023-04-26T03:55:23.431Z,81.96
2023-04-26T03:57:51.454Z,82.13
2023-04-26T04:00:21.400Z,82.31
2023-04-26T04:02:49.652Z,82.57
2023-04-26T04:05:18.033Z,82.65
2023-04-26T04:07:46.318Z,82.86
2023-04-26T04:10:14.388Z,82.79
2023-04-26T04:12:42.438Z,82.82
2023-04-26T04:15:11.563Z,82.67
2023-04-26T04:17:41.057Z,82.73
2023-04-26T04:20:10.301Z,82.40
2023-04-26T04:22:39.651Z,82.37
2023-04-26T04:25:09.344Z,82.07
2023-04-26T04:27:38.194Z,82.08
2023-04-26T04:30:08.972Z,82.00
2023-04-26T04:32:38.100Z,81.70
2023-04-26T04:35:08.557Z,81.40
2023-04-26T04:37:36.633Z,81.43
2023-04-26T04:40:05.527Z,81.18
2023-04-26T04:42:34.986Z,81.11
2023-04-26T04:45:03.372Z,81.17
2023-04-26T04:47:31.501Z,81.23
2023-04-26T04:50:00.270Z,81.14
2023-04-26T04:52:29.728Z,80.97
2023-04-26T04:54:57.819Z,81.00
2023-04-26T04:57:25.920Z,80.73
2023-04-26T04:59:54.209Z,80.65
2023-04-26T05:02:22.445Z,80.39
2023-04-26T05:04:50.879Z,80.17
2023-04-26T05:07:19.106Z,79.92
2023-04-26T05:09:48.517Z,79.83
2023-04-26T05:12:16.620Z,79.48
2023-04-26T05:14:44.693Z,79.27
2023-04-26T05:17:13.372Z,78.68
2023-04-26T05:19:41.478Z,78.47
2023-04-26T05:22:09.537Z,77.86
2023-04-26T05:24:37.592Z,77.64
2023-04-26T05:27:07.021Z,77.61
2023-04-26T05:29:35.145Z,77.41
2023-04-26T05:32:03.932Z,77.25
2023-04-26T05:34:32.096Z,76.62
2023-04-26T05:37:00.161Z,76.60
2023-04-26T05:39:28.263Z,76.68
2023-04-26T05:41:56.385Z,75.96
2023-04-26T05:44:25.795Z,75.55
2023-04-26T05:46:54.001Z,74.60
2023-04-26T05:49:22.190Z,74.25
2023-04-26T05:51:50.344Z,73.30
2023-04-26T05:54:18.392Z,72.15
2023-04-26T05:56:46.758Z,71.75
2023-04-26T05:59:14.803Z,71.01
2023-04-26T06:01:44.219Z,69.71
2023-04-26T06:04:12.591Z,68.89
2023-04-26T06:06:40.914Z,68.00
2023-04-26T06:09:09.839Z,66.63
2023-04-26T06:11:37.938Z,65.57
2023-04-26T06:14:06.764Z,65.11
2023-04-26T06:16:34.927Z,64.10
2023-04-26T06:19:04.413Z,63.17
2023-04-26T06:21:32.968Z,62.60
2023-04-26T06:24:00.983Z,61.70
2023-04-26T06:26:29.054Z,61.58
2023-04-26T06:28:57.084Z,60.25
2023-04-26T06:31:25.190Z,59.81
2023-04-26T06:33:53.552Z,58.99
2023-04-26T06:36:23.356Z,58.23
2023-04-26T06:38:51.835Z,57.80
2023-04-26T06:41:19.899Z,56.86
2023-04-26T06:43:47.963Z,56.72
2023-04-26T06:46:16.081Z,55.99
2023-04-26T06:48:44.174Z,56.38
2023-04-26T06:51:12.460Z,55.56
2023-04-26T06:53:42.336Z,55.71
2023-04-26T06:56:10.399Z,55.70
2023-04-26T06:58:38.469Z,54.69
2023-04-26T07:01:08.624Z,54.60
2023-04-26T07:03:36.855Z,54.77
2023-04-26T07:06:06.266Z,54.14
2023-04-26T07:08:34.525Z,53.76
2023-04-26T07:11:10.343Z,53.89
2023-04-26T07:13:41.131Z,53.49
2023-04-26T07:16:09.200Z,53.21
2023-04-26T07:18:37.284Z,53.82
2023-04-26T07:21:05.336Z,52.67
2023-04-26T07:23:33.503Z,52.37
2023-04-26T07:26:04.395Z,52.33
2023-04-26T07:28:32.592Z,51.70
2023-04-26T07:31:02.358Z,52.40
2023-04-26T07:33:30.676Z,52.52
2023-04-26T07:36:01.433Z,51.64
2023-04-26T07:38:29.651Z,51.05
2023-04-26T07:40:58.286Z,50.29
2023-04-26T07:43:27.924Z,51.21
2023-04-26T07:45:56.035Z,50.83
2023-04-26T07:48:24.196Z,50.44
2023-04-26T07:50:52.259Z,51.45
2023-04-26T07:53:20.731Z,52.45
2023-04-26T07:55:48.910Z,52.71
2023-04-26T07:58:17.044Z,53.32
2023-04-26T08:00:46.545Z,54.99
2023-04-26T08:03:16.638Z,55.17
2023-04-26T08:05:47.960Z,55.10
2023-04-26T08:08:18.842Z,54.57
2023-04-26T08:10:47.169Z,54.79
2023-04-26T08:13:15.895Z,54.24
2023-04-26T08:15:44.030Z,53.85
2023-04-26T08:18:13.492Z,53.12
2023-04-26T08:20:42.437Z,52.62
2023-04-26T08:23:10.581Z,52.10
2023-04-26T08:25:38.668Z,51.45
2023-04-26T08:28:08.081Z,52.11
2023-04-26T08:30:36.317Z,52.19
2023-04-26T08:33:04.631Z,51.77
2023-04-26T08:35:34.065Z,52.33
2023-04-26T08:38:02.148Z,51.83
2023-04-26T08:40:30.229Z,50.74
2023-04-26T08:42:58.332Z,49.47
2023-04-26T08:45:26.479Z,49.74
2023-04-26T08:47:56.876Z,49.49
2023-04-26T08:50:25.413Z,49.42
2023-04-26T08:52:54.902Z,49.37
2023-04-26T08:55:23.445Z,50.27
2023-04-26T08:57:51.989Z,50.41
2023-04-26T09:00:21.440Z,49.31
2023-04-26T09:02:52.573Z,49.07
2023-04-26T09:05:23.701Z,51.58
2023-04-26T09:07:54.445Z,53.80
2023-04-26T09:10:24.009Z,56.65
2023-04-26T09:12:53.357Z,58.14
2023-04-26T09:15:22.708Z,57.93
2023-04-26T09:17:51.798Z,59.02
2023-04-26T09:20:23.176Z,58.22
2023-04-26T09:22:52.337Z,57.08
2023-04-26T09:25:27.768Z,53.26
2023-04-26T09:27:57.296Z,51.59
2023-04-26T09:30:26.035Z,50.54
2023-04-26T09:32:56.568Z,50.15
2023-04-26T09:35:27.246Z,48.68
2023-04-26T09:38:00.456Z,46.66
2023-04-26T09:40:34.448Z,45.72
2023-04-26T09:43:05.228Z,46.00
2023-04-26T09:45:35.135Z,45.03
2023-04-26T09:48:22.286Z,46.29
2023-04-26T09:50:52.552Z,47.62
2023-04-26T09:53:28.768Z,48.63
2023-04-26T09:55:57.644Z,50.92
2023-04-26T09:58:27.140Z,52.62
2023-04-26T10:00:55.755Z,53.39
2023-04-26T10:03:24.162Z,54.62
2023-04-26T10:05:52.791Z,55.24
2023-04-26T10:08:20.878Z,55.46
2023-04-26T10:10:49.062Z,55.12
2023-04-26T10:13:17.599Z,53.62
2023-04-26T10:15:48.861Z,53.60
2023-04-26T10:18:17.265Z,52.63
2023-04-26T10:20:49.441Z,51.89
2023-04-26T10:23:21.240Z,51.68
2023-04-26T10:25:49.555Z,51.52
2023-04-26T10:28:18.789Z,50.73
2023-04-26T10:30:57.955Z,50.82
2023-04-26T10:33:27.237Z,50.23
2023-04-26T10:36:03.887Z,49.96
2023-04-26T10:38:32.005Z,48.89
2023-04-26T10:41:33.754Z,48.41
2023-04-26T10:44:39.971Z,48.92
2023-04-26T10:47:21.970Z,50.57
2023-04-26T10:49:50.053Z,50.93
2023-04-26T10:52:21.375Z,50.40
2023-04-26T10:54:51.590Z,48.92
2023-04-26T10:57:20.133Z,45.29
2023-04-26T11:00:21.127Z,43.29
2023-04-26T11:02:58.349Z,42.94
2023-04-26T11:05:56.580Z,43.23
2023-04-26T11:08:30.089Z,43.62
2023-04-26T11:11:11.097Z,42.06
2023-04-26T11:13:40.629Z,43.65
2023-04-26T11:16:09.580Z,46.34
2023-04-26T11:18:40.224Z,50.06
2023-04-26T11:21:08.475Z,54.36
2023-04-26T11:23:36.824Z,56.08
2023-04-26T11:26:05.699Z,56.75
2023-04-26T11:28:37.201Z,58.12
2023-04-26T11:31:06.404Z,57.69
2023-04-26T11:33:35.659Z,57.13
2023-04-26T11:36:05.556Z,55.87
2023-04-26T11:38:33.663Z,54.70
2023-04-26T11:41:03.071Z,53.74
2023-04-26T11:43:35.609Z,53.98
2023-04-26T11:46:04.604Z,52.52
2023-04-26T11:48:33.768Z,51.82
2023-04-26T11:51:03.804Z,51.41
2023-04-26T11:53:40.734Z,51.42
2023-04-26T11:56:16.871Z,51.53
2023-04-26T11:58:48.959Z,49.98
2023-04-26T12:01:22.198Z,50.50
2023-04-26T12:03:52.223Z,52.64
2023-04-26T12:06:21.150Z,53.49
2023-04-26T12:08:53.982Z,53.40
2023-04-26T12:11:22.188Z,53.32
2023-04-26T12:13:50.345Z,53.61
2023-04-26T12:16:26.445Z,53.26
2023-04-26T12:18:56.769Z,53.04
2023-04-26T12:21:27.532Z,51.56
2023-04-26T12:23:59.344Z,50.96
2023-04-26T12:26:43.595Z,50.22
2023-04-26T12:29:11.714Z,49.98
2023-04-26T12:31:39.999Z,49.16
2023-04-26T12:34:08.853Z,47.17
2023-04-26T12:36:36.908Z,47.04
2023-04-26T12:39:06.920Z,48.48
2023-04-26T12:41:35.047Z,51.31
2023-04-26T12:44:03.191Z,53.85
2023-04-26T12:46:31.388Z,56.54
2023-04-26T12:48:59.544Z,57.64
2023-04-26T12:51:27.706Z,58.24
2023-04-26T12:53:55.855Z,58.12
2023-04-26T12:56:25.712Z,58.59
2023-04-26T12:58:53.817Z,58.94
2023-04-26T13:01:21.956Z,58.97
2023-04-26T13:03:50.267Z,58.99
2023-04-26T13:06:18.588Z,58.71
2023-04-26T13:08:46.696Z,56.77
2023-04-26T13:11:14.772Z,54.69
2023-04-26T13:13:45.025Z,53.94
2023-04-26T13:16:13.575Z,52.53
2023-04-26T13:18:42.232Z,51.80
2023-04-26T13:21:10.282Z,49.95
2023-04-26T13:23:38.373Z,48.38
2023-04-26T13:26:06.648Z,47.79
2023-04-26T13:28:36.157Z,46.81
2023-04-26T13:31:06.483Z,47.37
2023-04-26T13:33:34.768Z,45.88
2023-04-26T13:36:02.893Z,44.61
2023-04-26T13:38:32.850Z,44.27
2023-04-26T13:41:01.334Z,43.33
2023-04-26T13:43:30.706Z,44.22
2023-04-26T13:45:58.816Z,44.85
2023-04-26T13:48:28.473Z,45.77
2023-04-26T13:50:56.740Z,47.27
2023-04-26T13:53:25.010Z,46.84
2023-04-26T13:55:53.371Z,47.14
2023-04-26T13:58:21.784Z,46.92
2023-04-26T14:00:49.868Z,46.42
2023-04-26T14:03:18.313Z,45.51
2023-04-26T14:05:47.821Z,45.83
2023-04-26T14:08:16.128Z,46.00
2023-04-26T14:10:44.396Z,45.95
2023-04-26T14:13:12.467Z,46.76
2023-04-26T14:15:40.523Z,47.99
2023-04-26T14:18:09.225Z,47.82
2023-04-26T14:20:37.316Z,48.29
2023-04-26T14:23:06.763Z,48.66
2023-04-26T14:25:35.329Z,49.42
2023-04-26T14:28:04.168Z,49.32
2023-04-26T14:30:32.649Z,49.03
2023-04-26T14:33:00.948Z,48.51
2023-04-26T14:35:29.058Z,46.74
2023-04-26T14:37:57.129Z,45.44
2023-04-26T14:40:26.543Z,44.83
2023-04-26T14:42:54.613Z,45.23
2023-04-26T14:45:30.405Z,45.26
2023-04-26T14:48:02.315Z,44.89
2023-04-26T14:50:30.464Z,43.99
2023-04-26T14:52:58.539Z,43.91
2023-04-26T14:55:28.315Z,43.47
2023-04-26T14:57:56.382Z,44.33
2023-04-26T15:00:25.532Z,45.77
2023-04-26T15:02:53.783Z,47.14
2023-04-26T15:05:24.144Z,48.97
2023-04-26T15:07:52.326Z,50.48
2023-04-26T15:10:20.736Z,50.97
2023-04-26T15:12:50.307Z,51.47
2023-04-26T15:15:18.610Z,50.52
2023-04-26T15:17:46.895Z,50.39
2023-04-26T15:20:15.943Z,49.66
2023-04-26T15:22:44.101Z,48.93
2023-04-26T15:25:12.743Z,48.09
2023-04-26T15:27:41.136Z,47.53
2023-04-26T15:30:11.473Z,47.96
2023-04-26T15:32:39.637Z,47.55
2023-04-26T15:35:08.467Z,48.04
2023-04-26T15:37:38.269Z,48.00
2023-04-26T15:40:10.389Z,47.36
2023-04-26T15:42:38.953Z,48.37
2023-04-26T15:45:08.227Z,48.69
2023-04-26T15:47:38.135Z,47.51
2023-04-26T15:50:09.757Z,45.67
2023-04-26T15:52:40.325Z,45.25
2023-04-26T15:55:08.562Z,45.15
2023-04-26T15:57:37.557Z,45.61
2023-04-26T16:00:08.434Z,45.84
2023-04-26T16:02:38.104Z,46.16
2023-04-26T16:05:08.248Z,47.04
2023-04-26T16:07:38.696Z,47.03
2023-04-26T16:10:08.318Z,47.51
2023-04-26T16:12:39.332Z,48.42
2023-04-26T16:15:09.391Z,49.05
2023-04-26T16:17:39.243Z,49.57
2023-04-26T16:20:09.072Z,49.90
2023-04-26T16:22:37.619Z,50.58
2023-04-26T16:25:06.984Z,51.82
2023-04-26T16:27:35.360Z,52.82
2023-04-26T16:30:03.897Z,53.35
2023-04-26T16:32:32.308Z,53.97
2023-04-26T16:35:01.799Z,54.29
2023-04-26T16:37:29.852Z,53.75
2023-04-26T16:39:57.906Z,53.10
2023-04-26T16:42:26.365Z,52.43
2023-04-26T16:44:56.016Z,50.54
2023-04-26T16:47:24.169Z,47.61
2023-04-26T16:49:52.487Z,46.77
2023-04-26T16:52:21.987Z,45.67
2023-04-26T16:54:50.192Z,44.60
2023-04-26T16:57:18.904Z,44.58
2023-04-26T16:59:47.432Z,45.38
2023-04-26T17:02:15.750Z,45.46
2023-04-26T17:04:44.422Z,45.60
2023-04-26T17:07:12.924Z,46.60
2023-04-26T17:09:42.387Z,47.12
2023-04-26T17:12:10.458Z,47.42
2023-04-26T17:14:38.530Z,48.00
2023-04-26T17:17:06.674Z,48.83
2023-04-26T17:19:34.819Z,49.69
2023-04-26T17:22:02.937Z,49.79
2023-04-26T17:24:31.196Z,49.82
2023-04-26T17:27:00.656Z,50.35
2023-04-26T17:29:28.729Z,50.80
2023-04-26T17:31:56.805Z,51.92
2023-04-26T17:34:25.022Z,52.85
2023-04-26T17:36:53.511Z,54.21
2023-04-26T17:39:21.588Z,54.88
2023-04-26T17:41:51.254Z,55.16
2023-04-26T17:44:20.722Z,55.33
2023-04-26T17:46:49.108Z,55.47
2023-04-26T17:49:17.273Z,55.88
2023-04-26T17:51:45.394Z,55.51
2023-04-26T17:54:14.099Z,55.31
2023-04-26T17:56:43.464Z,55.11
2023-04-26T17:59:11.797Z,55.13
2023-04-26T18:01:41.313Z,55.12
2023-04-26T18:04:09.559Z,55.88
2023-04-26T18:06:37.956Z,56.33
2023-04-26T18:09:06.134Z,55.95
2023-04-26T18:11:34.254Z,56.04
2023-04-26T18:14:02.340Z,55.69
2023-04-26T18:16:30.412Z,55.91
2023-04-26T18:18:59.881Z,56.28
2023-04-26T18:21:27.939Z,56.64
2023-04-26T18:23:56.277Z,57.31
2023-04-26T18:26:25.632Z,57.51
2023-04-26T18:28:54.902Z,57.79
2023-04-26T18:31:23.187Z,57.91
2023-04-26T18:33:51.367Z,57.70
2023-04-26T18:36:20.868Z,58.12
2023-04-26T18:38:48.937Z,58.48
2023-04-26T18:41:17.881Z,58.70
2023-04-26T18:43:45.962Z,58.90
2023-04-26T18:46:14.087Z,59.50
2023-04-26T18:48:42.218Z,59.71
2023-04-26T18:51:10.312Z,59.96
2023-04-26T18:53:39.778Z,60.73
2023-04-26T18:56:07.945Z,61.16
2023-04-26T18:58:36.742Z,61.53
2023-04-26T19:01:04.938Z,61.98
2023-04-26T19:03:33.237Z,62.52
2023-04-26T19:06:01.423Z,63.16
2023-04-26T19:08:29.490Z,63.73
2023-04-26T19:10:59.212Z,64.02
2023-04-26T19:13:27.378Z,64.22
2023-04-26T19:15:55.473Z,64.81
2023-04-26T19:18:23.613Z,64.98
2023-04-26T19:20:51.681Z,65.21
2023-04-26T19:23:20.062Z,65.02
2023-04-26T19:25:48.511Z,64.83
2023-04-26T19:28:17.965Z,64.88
2023-04-26T19:30:46.024Z,64.44
2023-04-26T19:33:14.116Z,64.43
2023-04-26T19:35:42.184Z,64.97
2023-04-26T19:38:10.455Z,65.22
2023-04-26T19:40:38.940Z,65.94
2023-04-26T19:43:07.153Z,66.54
2023-04-26T19:45:37.902Z,67.09
2023-04-26T19:48:06.195Z,67.59
2023-04-26T19:50:34.318Z,67.85
2023-04-26T19:53:02.431Z,68.25
2023-04-26T19:55:30.722Z,68.53
2023-04-26T19:57:59.410Z,68.83
2023-04-26T20:00:30.181Z,69.25
2023-04-26T20:03:00.032Z,69.47
2023-04-26T20:05:28.152Z,69.71
2023-04-26T20:07:56.642Z,69.75
2023-04-26T20:10:24.884Z,69.61
2023-04-26T20:12:53.175Z,69.48
2023-04-26T20:15:21.318Z,69.13
2023-04-26T20:17:49.437Z,69.13
2023-04-26T20:20:19.127Z,69.11
2023-04-26T20:22:47.197Z,69.14
2023-04-26T20:25:15.504Z,68.96
2023-04-26T20:27:43.585Z,68.96
2023-04-26T20:30:12.519Z,68.87
2023-04-26T20:32:40.627Z,69.07
2023-04-26T20:35:09.427Z,68.97
2023-04-26T20:37:38.913Z,69.08
2023-04-26T20:40:08.393Z,69.37
2023-04-26T20:42:36.501Z,69.51
2023-04-26T20:45:05.121Z,69.74
2023-04-26T20:47:33.220Z,70.09
2023-04-26T20:50:01.287Z,70.42
2023-04-26T20:52:29.359Z,71.01
2023-04-26T20:54:58.789Z,70.97
2023-04-26T20:57:26.967Z,71.06
2023-04-26T20:59:55.034Z,71.16
2023-04-26T21:02:23.240Z,71.40
2023-04-26T21:04:51.522Z,71.78
2023-04-26T21:07:19.595Z,71.47
2023-04-26T21:09:47.948Z,71.44
2023-04-26T21:12:17.412Z,71.43
2023-04-26T21:14:47.831Z,71.42
2023-04-26T21:17:16.031Z,71.70
2023-04-26T21:19:44.562Z,71.88
2023-04-26T21:22:12.693Z,71.71
2023-04-26T21:24:40.764Z,71.81
2023-04-26T21:27:09.447Z,72.08
2023-04-26T21:29:39.097Z,72.23
2023-04-26T21:32:07.176Z,72.52
2023-04-26T21:34:36.513Z,72.84
2023-04-26T21:37:04.747Z,72.99
2023-04-26T21:39:32.829Z,73.04
2023-04-26T21:42:03.386Z,73.11
2023-04-26T21:44:31.497Z,73.48
2023-04-26T21:47:01.080Z,73.45
2023-04-26T21:49:29.276Z,73.76
2023-04-26T21:51:57.370Z,74.04
2023-04-26T21:54:25.581Z,74.55
2023-04-26T21:56:53.638Z,74.96
2023-04-26T21:59:21.718Z,75.03
2023-04-26T22:01:49.791Z,75.43
2023-04-26T22:04:19.452Z,75.43
2023-04-26T22:06:47.655Z,75.40
2023-04-26T22:09:15.858Z,75.37
2023-04-26T22:11:44.245Z,75.52
2023-04-26T22:14:12.324Z,75.43
2023-04-26T22:16:40.430Z,75.57
2023-04-26T22:19:08.885Z,75.63
2023-04-26T22:21:38.659Z,75.80
2023-04-26T22:24:07.426Z,75.72
2023-04-26T22:26:36.084Z,76.14
2023-04-26T22:29:04.173Z,76.32
2023-04-26T22:31:32.244Z,76.71
2023-04-26T22:34:00.316Z,76.96
2023-04-26T22:36:28.387Z,77.05
2023-04-26T22:38:59.005Z,77.32
2023-04-26T22:41:27.066Z,77.63
2023-04-26T22:43:55.185Z,77.51
2023-04-26T22:46:23.406Z,77.48
2023-04-26T22:48:51.636Z,77.30
2023-04-26T22:51:19.749Z,77.19
2023-04-26T22:53:47.799Z,77.17
2023-04-26T22:56:17.606Z,77.13
2023-04-26T22:58:45.914Z,77.17
2023-04-26T23:01:14.019Z,77.14
2023-04-26T23:03:42.261Z,77.31
2023-04-26T23:06:10.380Z,77.26
2023-04-26T23:08:38.442Z,77.48
2023-04-26T23:11:08.672Z,77.64
2023-04-26T23:13:38.228Z,77.63
2023-04-26T23:16:07.066Z,77.74
2023-04-26T23:18:35.274Z,77.58
2023-04-26T23:21:03.396Z,77.57
2023-04-26T23:23:31.616Z,77.53
2023-04-26T23:25:59.662Z,77.76
2023-04-26T23:28:27.717Z,77.79
2023-04-26T23:30:57.207Z,77.87
2023-04-26T23:33:25.553Z,77.87
2023-04-26T23:35:55.952Z,78.01
2023-04-26T23:38:24.076Z,78.15
2023-04-26T23:40:52.152Z,78.37
2023-04-26T23:43:20.223Z,78.75
2023-04-26T23:45:48.297Z,78.96
2023-04-26T23:48:19.723Z,79.09
2023-04-26T23:50:47.790Z,79.27
2023-04-26T23:53:16.158Z,79.37
2023-04-26T23:55:44.245Z,79.47
2023-04-26T23:58:12.299Z,79.29
